sensor_id;sensor_type;location;lat;lon;timestamp;P1;P2;P0
69349;PMS5003;64554;43.452;4.934;2023-05-23T00:00:55;27.20;26.40;18.00
69349;PMS5003;64554;43.452;4.934;2023-05-23T00:03:23;23.00;22.25;15.50
69349;PMS5003;64554;43.452;4.934;2023-05-23T00:05:49;32.50;31.50;17.50
69349;PMS5003;64554;43.452;4.934;2023-05-23T00:08:16;28.25;28.25;18.25
69349;PMS5003;64554;43.452;4.934;2023-05-23T00:10:43;31.50;29.75;19.75
69349;PMS5003;64554;43.452;4.934;2023-05-23T00:13:10;27.40;26.60;18.00
69349;PMS5003;64554;43.452;4.934;2023-05-23T00:15:40;28.00;27.00;18.00
69349;PMS5003;64554;43.452;4.934;2023-05-23T00:18:07;25.75;25.75;16.75
69349;PMS5003;64554;43.452;4.934;2023-05-23T00:20:35;30.20;28.20;17.80
69349;PMS5003;64554;43.452;4.934;2023-05-23T00:23:01;30.75;28.75;18.50
69349;PMS5003;64554;43.452;4.934;2023-05-23T00:25:28;35.40;32.00;19.00
69349;PMS5003;64554;43.452;4.934;2023-05-23T00:27:59;29.20;29.20;17.60
69349;PMS5003;64554;43.452;4.934;2023-05-23T00:30:27;32.25;30.25;16.25
69349;PMS5003;64554;43.452;4.934;2023-05-23T00:32:53;32.60;29.40;19.60
69349;PMS5003;64554;43.452;4.934;2023-05-23T00:35:20;26.60;25.60;16.60
69349;PMS5003;64554;43.452;4.934;2023-05-23T00:37:47;26.75;26.75;17.75
69349;PMS5003;64554;43.452;4.934;2023-05-23T00:40:15;31.20;29.60;18.00
69349;PMS5003;64554;43.452;4.934;2023-05-23T00:42:42;29.75;29.75;20.00
69349;PMS5003;64554;43.452;4.934;2023-05-23T00:45:08;33.40;29.60;16.60
69349;PMS5003;64554;43.452;4.934;2023-05-23T00:47:35;27.40;27.40;18.00
69349;PMS5003;64554;43.452;4.934;2023-05-23T00:50:01;33.50;30.75;18.50
69349;PMS5003;64554;43.452;4.934;2023-05-23T00:52:28;28.20;28.20;19.60
69349;PMS5003;64554;43.452;4.934;2023-05-23T00:54:55;26.00;25.00;16.75
69349;PMS5003;64554;43.452;4.934;2023-05-23T00:57:21;31.80;29.80;19.80
69349;PMS5003;64554;43.452;4.934;2023-05-23T00:59:48;29.67;28.67;18.67
69349;PMS5003;64554;43.452;4.934;2023-05-23T01:02:14;28.75;28.75;17.00
69349;PMS5003;64554;43.452;4.934;2023-05-23T01:04:41;33.00;30.00;18.60
69349;PMS5003;64554;43.452;4.934;2023-05-23T01:07:08;28.25;26.25;19.25
69349;PMS5003;64554;43.452;4.934;2023-05-23T01:09:36;29.80;29.60;18.20
69349;PMS5003;64554;43.452;4.934;2023-05-23T01:17:28;31.75;30.75;18.00
69349;PMS5003;64554;43.452;4.934;2023-05-23T01:20:02;37.50;32.50;20.00
69349;PMS5003;64554;43.452;4.934;2023-05-23T01:28:06;26.50;26.50;18.00
69349;PMS5003;64554;43.452;4.934;2023-05-23T01:30:35;35.40;31.00;19.00
69349;PMS5003;64554;43.452;4.934;2023-05-23T01:33:04;31.20;30.20;20.00
69349;PMS5003;64554;43.452;4.934;2023-05-23T01:35:32;30.00;30.00;19.00
69349;PMS5003;64554;43.452;4.934;2023-05-23T01:37:59;32.80;30.60;17.60
69349;PMS5003;64554;43.452;4.934;2023-05-23T01:40:25;32.00;28.00;20.00
69349;PMS5003;64554;43.452;4.934;2023-05-23T01:42:52;28.50;25.50;17.50
69349;PMS5003;64554;43.452;4.934;2023-05-23T01:45:20;30.60;28.60;18.60
69349;PMS5003;64554;43.452;4.934;2023-05-23T01:47:47;28.00;28.00;19.50
69349;PMS5003;64554;43.452;4.934;2023-05-23T01:50:16;32.75;30.75;18.75
69349;PMS5003;64554;43.452;4.934;2023-05-23T01:52:43;32.60;31.60;18.00
69349;PMS5003;64554;43.452;4.934;2023-05-23T01:55:11;24.40;24.40;17.00
69349;PMS5003;64554;43.452;4.934;2023-05-23T01:57:41;30.20;29.40;18.80
69349;PMS5003;64554;43.452;4.934;2023-05-23T02:00:07;28.40;26.40;16.40
69349;PMS5003;64554;43.452;4.934;2023-05-23T02:02:37;26.75;25.75;18.00
69349;PMS5003;64554;43.452;4.934;2023-05-23T02:05:04;27.25;26.00;18.00
69349;PMS5003;64554;43.452;4.934;2023-05-23T02:07:30;27.25;26.25;16.00
69349;PMS5003;64554;43.452;4.934;2023-05-23T02:09:57;22.00;22.00;14.75
69349;PMS5003;64554;43.452;4.934;2023-05-23T02:12:24;31.20;30.40;16.00
69349;PMS5003;64554;43.452;4.934;2023-05-23T02:14:52;29.80;28.60;15.00
69349;PMS5003;64554;43.452;4.934;2023-05-23T02:17:19;26.00;26.00;14.80
69349;PMS5003;64554;43.452;4.934;2023-05-23T02:19:47;29.80;27.00;17.40
69349;PMS5003;64554;43.452;4.934;2023-05-23T02:22:14;30.80;29.40;15.60
69349;PMS5003;64554;43.452;4.934;2023-05-23T02:24:41;29.00;29.00;16.75
69349;PMS5003;64554;43.452;4.934;2023-05-23T02:27:07;27.50;25.75;19.50
69349;PMS5003;64554;43.452;4.934;2023-05-23T02:29:34;28.00;28.00;17.20
69349;PMS5003;64554;43.452;4.934;2023-05-23T02:32:01;27.80;26.60;16.60
69349;PMS5003;64554;43.452;4.934;2023-05-23T02:34:27;26.40;25.40;19.00
69349;PMS5003;64554;43.452;4.934;2023-05-23T02:36:54;29.00;29.00;15.60
69349;PMS5003;64554;43.452;4.934;2023-05-23T02:39:20;27.60;27.60;17.60
69349;PMS5003;64554;43.452;4.934;2023-05-23T02:41:47;34.00;29.50;17.00
69349;PMS5003;64554;43.452;4.934;2023-05-23T02:44:13;32.33;30.33;17.00
69349;PMS5003;64554;43.452;4.934;2023-05-23T02:46:40;34.75;31.75;18.75
69349;PMS5003;64554;43.452;4.934;2023-05-23T02:49:06;27.00;24.80;17.00
69349;PMS5003;64554;43.452;4.934;2023-05-23T02:51:33;29.00;28.00;18.00
69349;PMS5003;64554;43.452;4.934;2023-05-23T02:53:59;33.25;31.50;18.25
69349;PMS5003;64554;43.452;4.934;2023-05-23T02:56:26;29.00;28.40;19.00
69349;PMS5003;64554;43.452;4.934;2023-05-23T02:58:53;27.00;26.00;17.00
69349;PMS5003;64554;43.452;4.934;2023-05-23T03:01:19;34.50;31.50;19.00
69349;PMS5003;64554;43.452;4.934;2023-05-23T03:03:46;31.25;30.25;16.75
69349;PMS5003;64554;43.452;4.934;2023-05-23T03:06:12;23.00;23.00;16.00
69349;PMS5003;64554;43.452;4.934;2023-05-23T03:08:40;24.50;22.75;17.75
69349;PMS5003;64554;43.452;4.934;2023-05-23T03:11:07;30.50;29.00;15.75
69349;PMS5003;64554;43.452;4.934;2023-05-23T03:13:34;25.60;24.60;16.60
69349;PMS5003;64554;43.452;4.934;2023-05-23T03:16:00;28.00;26.00;18.00
69349;PMS5003;64554;43.452;4.934;2023-05-23T03:18:27;25.25;25.00;17.00
69349;PMS5003;64554;43.452;4.934;2023-05-23T03:20:53;21.00;20.50;13.00
69349;PMS5003;64554;43.452;4.934;2023-05-23T03:23:20;21.75;21.75;13.00
69349;PMS5003;64554;43.452;4.934;2023-05-23T03:25:47;20.80;20.80;13.00
69349;PMS5003;64554;43.452;4.934;2023-05-23T03:28:13;24.75;24.75;15.75
69349;PMS5003;64554;43.452;4.934;2023-05-23T03:30:40;25.50;25.00;16.00
69349;PMS5003;64554;43.452;4.934;2023-05-23T03:33:07;28.20;25.60;14.40
69349;PMS5003;64554;43.452;4.934;2023-05-23T03:35:33;26.00;24.75;15.00
69349;PMS5003;64554;43.452;4.934;2023-05-23T03:38:00;29.50;26.50;15.50
69349;PMS5003;64554;43.452;4.934;2023-05-23T03:40:26;29.40;28.00;15.00
69349;PMS5003;64554;43.452;4.934;2023-05-23T03:43:03;21.80;21.80;13.80
69349;PMS5003;64554;43.452;4.934;2023-05-23T03:45:30;20.00;20.00;13.75
69349;PMS5003;64554;43.452;4.934;2023-05-23T03:47:57;22.20;22.20;16.20
69349;PMS5003;64554;43.452;4.934;2023-05-23T03:50:24;29.20;28.20;17.20
69349;PMS5003;64554;43.452;4.934;2023-05-23T03:52:52;23.60;23.60;14.00
69349;PMS5003;64554;43.452;4.934;2023-05-23T03:55:21;22.00;22.00;14.00
69349;PMS5003;64554;43.452;4.934;2023-05-23T03:57:49;25.00;23.60;15.60
69349;PMS5003;64554;43.452;4.934;2023-05-23T04:00:17;23.40;22.60;12.60
69349;PMS5003;64554;43.452;4.934;2023-05-23T04:02:44;20.40;20.40;14.00
69349;PMS5003;64554;43.452;4.934;2023-05-23T04:05:15;23.20;23.00;15.00
69349;PMS5003;64554;43.452;4.934;2023-05-23T04:07:42;24.00;23.75;13.75
69349;PMS5003;64554;43.452;4.934;2023-05-23T04:10:09;23.80;22.80;14.20
69349;PMS5003;64554;43.452;4.934;2023-05-23T04:12:35;26.20;25.80;13.80
69349;PMS5003;64554;43.452;4.934;2023-05-23T04:15:02;22.00;22.00;14.50
69349;PMS5003;64554;43.452;4.934;2023-05-23T04:17:29;22.00;21.00;16.00
69349;PMS5003;64554;43.452;4.934;2023-05-23T04:19:57;23.00;20.00;13.40
69349;PMS5003;64554;43.452;4.934;2023-05-23T04:22:23;20.00;20.00;15.00
69349;PMS5003;64554;43.452;4.934;2023-05-23T04:24:50;25.50;25.50;16.00
69349;PMS5003;64554;43.452;4.934;2023-05-23T04:27:16;23.75;22.50;15.00
69349;PMS5003;64554;43.452;4.934;2023-05-23T04:29:43;26.00;26.00;15.80
69349;PMS5003;64554;43.452;4.934;2023-05-23T04:32:12;24.25;22.75;16.00
69349;PMS5003;64554;43.452;4.934;2023-05-23T04:34:38;24.00;24.00;16.00
69349;PMS5003;64554;43.452;4.934;2023-05-23T04:37:06;26.60;25.00;16.00
69349;PMS5003;64554;43.452;4.934;2023-05-23T04:39:34;27.25;25.75;14.25
69349;PMS5003;64554;43.452;4.934;2023-05-23T04:42:01;26.75;25.50;14.50
69349;PMS5003;64554;43.452;4.934;2023-05-23T04:44:27;24.75;24.75;13.25
69349;PMS5003;64554;43.452;4.934;2023-05-23T04:46:55;26.25;25.25;14.75
69349;PMS5003;64554;43.452;4.934;2023-05-23T04:49:22;23.00;23.00;14.00
69349;PMS5003;64554;43.452;4.934;2023-05-23T04:51:49;31.25;30.25;18.00
69349;PMS5003;64554;43.452;4.934;2023-05-23T04:54:16;25.00;23.00;15.00
69349;PMS5003;64554;43.452;4.934;2023-05-23T04:56:43;28.40;28.40;16.40
69349;PMS5003;64554;43.452;4.934;2023-05-23T04:59:09;21.40;20.20;13.00
69349;PMS5003;64554;43.452;4.934;2023-05-23T05:01:36;20.80;19.80;12.20
69349;PMS5003;64554;43.452;4.934;2023-05-23T05:04:06;21.40;20.00;13.40
69349;PMS5003;64554;43.452;4.934;2023-05-23T05:06:33;23.00;23.00;15.00
69349;PMS5003;64554;43.452;4.934;2023-05-23T05:08:59;26.20;25.00;15.20
69349;PMS5003;64554;43.452;4.934;2023-05-23T05:11:26;22.50;22.00;14.75
69349;PMS5003;64554;43.452;4.934;2023-05-23T05:13:53;22.20;20.60;13.40
69349;PMS5003;64554;43.452;4.934;2023-05-23T05:16:20;25.00;25.00;14.25
69349;PMS5003;64554;43.452;4.934;2023-05-23T05:18:47;24.80;22.80;14.00
69349;PMS5003;64554;43.452;4.934;2023-05-23T05:21:13;23.00;22.00;13.60
69349;PMS5003;64554;43.452;4.934;2023-05-23T05:23:40;24.25;23.25;15.00
69349;PMS5003;64554;43.452;4.934;2023-05-23T05:26:07;21.25;21.25;11.75
69349;PMS5003;64554;43.452;4.934;2023-05-23T05:28:33;18.40;17.40;12.60
69349;PMS5003;64554;43.452;4.934;2023-05-23T05:31:00;23.00;21.00;12.25
69349;PMS5003;64554;43.452;4.934;2023-05-23T05:33:30;18.00;15.00;11.00
69349;PMS5003;64554;43.452;4.934;2023-05-23T05:36:02;21.00;19.00;11.00
69349;PMS5003;64554;43.452;4.934;2023-05-23T05:38:29;20.40;19.20;11.00
69349;PMS5003;64554;43.452;4.934;2023-05-23T05:40:55;16.80;16.80;11.80
69349;PMS5003;64554;43.452;4.934;2023-05-23T05:43:22;16.00;15.00;10.00
69349;PMS5003;64554;43.452;4.934;2023-05-23T05:45:48;17.00;17.00;11.80
69349;PMS5003;64554;43.452;4.934;2023-05-23T05:48:15;16.00;15.20;11.00
69349;PMS5003;64554;43.452;4.934;2023-05-23T05:50:42;22.00;20.75;11.00
69349;PMS5003;64554;43.452;4.934;2023-05-23T05:53:10;19.20;18.20;13.00
69349;PMS5003;64554;43.452;4.934;2023-05-23T05:55:37;15.75;15.75;10.75
69349;PMS5003;64554;43.452;4.934;2023-05-23T05:58:04;17.50;15.50;11.00
69349;PMS5003;64554;43.452;4.934;2023-05-23T06:00:31;16.00;16.00;11.00
69349;PMS5003;64554;43.452;4.934;2023-05-23T06:02:57;22.00;21.75;10.50
69349;PMS5003;64554;43.452;4.934;2023-05-23T06:05:24;17.00;16.00;12.00
69349;PMS5003;64554;43.452;4.934;2023-05-23T06:07:51;15.80;15.60;10.20
69349;PMS5003;64554;43.452;4.934;2023-05-23T06:10:18;15.80;14.80;9.80
69349;PMS5003;64554;43.452;4.934;2023-05-23T06:12:46;17.50;17.50;9.50
69349;PMS5003;64554;43.452;4.934;2023-05-23T06:15:12;17.60;16.60;10.00
69349;PMS5003;64554;43.452;4.934;2023-05-23T06:17:40;18.00;16.00;10.40
69349;PMS5003;64554;43.452;4.934;2023-05-23T06:20:06;14.00;13.60;8.60
69349;PMS5003;64554;43.452;4.934;2023-05-23T06:22:33;15.00;13.25;8.75
69349;PMS5003;64554;43.452;4.934;2023-05-23T06:25:00;16.60;15.00;9.60
69349;PMS5003;64554;43.452;4.934;2023-05-23T06:27:26;18.20;15.20;8.80
69349;PMS5003;64554;43.452;4.934;2023-05-23T06:29:53;15.00;15.00;11.00
69349;PMS5003;64554;43.452;4.934;2023-05-23T06:32:19;18.00;18.00;12.00
69349;PMS5003;64554;43.452;4.934;2023-05-23T06:34:46;13.50;13.50;10.00
69349;PMS5003;64554;43.452;4.934;2023-05-23T06:37:13;14.60;13.60;10.00
69349;PMS5003;64554;43.452;4.934;2023-05-23T06:39:39;15.60;15.60;11.20
69349;PMS5003;64554;43.452;4.934;2023-05-23T06:42:06;13.50;12.50;9.50
69349;PMS5003;64554;43.452;4.934;2023-05-23T06:44:32;15.00;15.00;10.00
69349;PMS5003;64554;43.452;4.934;2023-05-23T06:46:59;14.00;14.00;10.00
69349;PMS5003;64554;43.452;4.934;2023-05-23T06:49:25;14.00;14.00;10.80
69349;PMS5003;64554;43.452;4.934;2023-05-23T06:51:52;12.80;12.80;9.20
69349;PMS5003;64554;43.452;4.934;2023-05-23T06:54:19;12.20;12.20;9.80
69349;PMS5003;64554;43.452;4.934;2023-05-23T06:56:46;14.60;14.60;10.00
69349;PMS5003;64554;43.452;4.934;2023-05-23T06:59:12;13.80;13.80;9.80
69349;PMS5003;64554;43.452;4.934;2023-05-23T07:01:39;12.00;12.00;8.00
69349;PMS5003;64554;43.452;4.934;2023-05-23T07:04:05;12.50;12.50;8.50
69349;PMS5003;64554;43.452;4.934;2023-05-23T07:06:33;15.20;13.20;11.00
69349;PMS5003;64554;43.452;4.934;2023-05-23T07:09:01;16.00;15.00;11.00
69349;PMS5003;64554;43.452;4.934;2023-05-23T07:11:27;15.25;11.75;8.75
69349;PMS5003;64554;43.452;4.934;2023-05-23T07:13:54;12.67;11.67;8.00
69349;PMS5003;64554;43.452;4.934;2023-05-23T07:16:20;12.75;12.75;10.00
69349;PMS5003;64554;43.452;4.934;2023-05-23T07:18:47;14.00;14.00;10.00
69349;PMS5003;64554;43.452;4.934;2023-05-23T07:21:13;12.00;12.00;8.60
69349;PMS5003;64554;43.452;4.934;2023-05-23T07:23:40;12.00;12.00;7.40
69349;PMS5003;64554;43.452;4.934;2023-05-23T07:26:06;14.00;12.00;10.00
69349;PMS5003;64554;43.452;4.934;2023-05-23T07:28:35;12.40;11.40;8.40
69349;PMS5003;64554;43.452;4.934;2023-05-23T07:31:02;15.00;14.00;10.00
69349;PMS5003;64554;43.452;4.934;2023-05-23T07:33:29;13.00;12.50;7.50
69349;PMS5003;64554;43.452;4.934;2023-05-23T07:35:56;13.00;13.00;9.20
69349;PMS5003;64554;43.452;4.934;2023-05-23T07:38:22;13.60;13.60;9.00
69349;PMS5003;64554;43.452;4.934;2023-05-23T07:40:49;12.00;10.50;8.00
69349;PMS5003;64554;43.452;4.934;2023-05-23T07:43:35;13.50;13.50;10.00
69349;PMS5003;64554;43.452;4.934;2023-05-23T07:46:02;13.00;13.00;9.00
69349;PMS5003;64554;43.452;4.934;2023-05-23T07:48:28;13.00;11.60;8.60
69349;PMS5003;64554;43.452;4.934;2023-05-23T07:50:55;13.25;12.00;9.00
69349;PMS5003;64554;43.452;4.934;2023-05-23T07:53:21;18.50;16.25;9.00
69349;PMS5003;64554;43.452;4.934;2023-05-23T07:55:48;13.75;13.75;9.00
69349;PMS5003;64554;43.452;4.934;2023-05-23T07:58:14;11.60;11.60;9.00
69349;PMS5003;64554;43.452;4.934;2023-05-23T08:00:41;11.00;11.00;7.25
69349;PMS5003;64554;43.452;4.934;2023-05-23T08:03:09;13.00;13.00;9.50
69349;PMS5003;64554;43.452;4.934;2023-05-23T08:05:37;12.25;12.25;10.00
69349;PMS5003;64554;43.452;4.934;2023-05-23T08:08:03;12.50;11.50;9.00
69349;PMS5003;64554;43.452;4.934;2023-05-23T08:10:30;12.00;12.00;9.00
69349;PMS5003;64554;43.452;4.934;2023-05-23T08:12:56;14.50;14.50;8.25
69349;PMS5003;64554;43.452;4.934;2023-05-23T08:15:25;11.00;10.60;8.00
69349;PMS5003;64554;43.452;4.934;2023-05-23T08:17:54;16.00;15.00;10.00
69349;PMS5003;64554;43.452;4.934;2023-05-23T08:20:22;13.00;13.00;10.00
69349;PMS5003;64554;43.452;4.934;2023-05-23T08:22:59;13.40;13.40;9.60
69349;PMS5003;64554;43.452;4.934;2023-05-23T08:25:26;13.00;12.00;9.00
69349;PMS5003;64554;43.452;4.934;2023-05-23T08:27:59;11.00;11.00;8.00
69349;PMS5003;64554;43.452;4.934;2023-05-23T08:30:26;12.25;12.25;9.00
69349;PMS5003;64554;43.452;4.934;2023-05-23T08:32:53;15.25;14.25;11.00
69349;PMS5003;64554;43.452;4.934;2023-05-23T08:35:21;14.50;12.50;9.50
69349;PMS5003;64554;43.452;4.934;2023-05-23T08:37:48;12.80;11.00;8.20
69349;PMS5003;64554;43.452;4.934;2023-05-23T08:40:19;12.60;12.60;8.60
69349;PMS5003;64554;43.452;4.934;2023-05-23T08:42:49;11.00;11.00;8.00
69349;PMS5003;64554;43.452;4.934;2023-05-23T08:45:16;12.00;12.00;9.00
69349;PMS5003;64554;43.452;4.934;2023-05-23T08:47:43;13.00;13.00;10.00
69349;PMS5003;64554;43.452;4.934;2023-05-23T08:50:11;14.00;14.00;9.75
69349;PMS5003;64554;43.452;4.934;2023-05-23T08:52:42;15.00;14.00;9.00
69349;PMS5003;64554;43.452;4.934;2023-05-23T08:55:10;10.00;10.00;7.40
69349;PMS5003;64554;43.452;4.934;2023-05-23T08:57:38;13.40;13.40;10.40
69349;PMS5003;64554;43.452;4.934;2023-05-23T09:00:09;13.00;13.00;10.00
69349;PMS5003;64554;43.452;4.934;2023-05-23T09:02:42;12.40;12.00;9.60
69349;PMS5003;64554;43.452;4.934;2023-05-23T09:05:09;13.00;13.00;9.00
69349;PMS5003;64554;43.452;4.934;2023-05-23T09:07:36;12.60;12.60;8.60
69349;PMS5003;64554;43.452;4.934;2023-05-23T09:10:03;13.50;13.50;9.50
69349;PMS5003;64554;43.452;4.934;2023-05-23T09:12:30;10.75;10.75;8.75
69349;PMS5003;64554;43.452;4.934;2023-05-23T09:14:58;16.00;16.00;10.00
69349;PMS5003;64554;43.452;4.934;2023-05-23T09:17:25;11.20;11.20;7.40
69349;PMS5003;64554;43.452;4.934;2023-05-23T09:19:52;12.50;12.50;9.50
69349;PMS5003;64554;43.452;4.934;2023-05-23T09:22:24;11.50;11.50;9.50
69349;PMS5003;64554;43.452;4.934;2023-05-23T09:24:54;11.00;11.00;8.50
69349;PMS5003;64554;43.452;4.934;2023-05-23T09:27:20;12.60;12.60;9.00
69349;PMS5003;64554;43.452;4.934;2023-05-23T09:29:48;12.75;12.75;9.75
69349;PMS5003;64554;43.452;4.934;2023-05-23T09:32:17;14.00;13.00;9.00
69349;PMS5003;64554;43.452;4.934;2023-05-23T09:37:20;14.80;13.20;11.00
69349;PMS5003;64554;43.452;4.934;2023-05-23T09:39:49;14.25;14.25;10.25
69349;PMS5003;64554;43.452;4.934;2023-05-23T09:42:20;13.60;11.20;8.20
69349;PMS5003;64554;43.452;4.934;2023-05-23T09:44:47;15.40;14.40;10.80
69349;PMS5003;64554;43.452;4.934;2023-05-23T09:47:14;18.25;16.75;11.50
69349;PMS5003;64554;43.452;4.934;2023-05-23T09:49:44;18.00;18.00;12.00
69349;PMS5003;64554;43.452;4.934;2023-05-23T09:52:11;20.67;19.00;12.00
69349;PMS5003;64554;43.452;4.934;2023-05-23T09:54:39;18.50;17.00;13.00
69349;PMS5003;64554;43.452;4.934;2023-05-23T09:57:08;18.00;15.00;11.50
69349;PMS5003;64554;43.452;4.934;2023-05-23T09:59:37;18.40;18.40;13.40
69349;PMS5003;64554;43.452;4.934;2023-05-23T10:02:05;18.25;18.00;12.25
69349;PMS5003;64554;43.452;4.934;2023-05-23T10:04:33;19.40;19.00;10.00
69349;PMS5003;64554;43.452;4.934;2023-05-23T10:07:01;17.80;17.80;12.20
69349;PMS5003;64554;43.452;4.934;2023-05-23T10:09:31;18.60;18.60;14.40
69349;PMS5003;64554;43.452;4.934;2023-05-23T10:14:25;17.00;16.00;12.00
69349;PMS5003;64554;43.452;4.934;2023-05-23T10:19:42;18.00;18.00;11.50
69349;PMS5003;64554;43.452;4.934;2023-05-23T10:22:13;14.25;14.25;9.50
69349;PMS5003;64554;43.452;4.934;2023-05-23T10:24:41;18.60;18.60;12.80
69349;PMS5003;64554;43.452;4.934;2023-05-23T10:27:10;17.80;16.00;11.00
69349;PMS5003;64554;43.452;4.934;2023-05-23T10:29:36;18.40;16.00;11.00
69349;PMS5003;64554;43.452;4.934;2023-05-23T10:32:03;15.80;14.40;10.80
69349;PMS5003;64554;43.452;4.934;2023-05-23T10:37:04;15.80;15.80;12.00
69349;PMS5003;64554;43.452;4.934;2023-05-23T10:41:59;16.25;16.25;12.25
69349;PMS5003;64554;43.452;4.934;2023-05-23T10:44:30;18.00;17.00;11.00
69349;PMS5003;64554;43.452;4.934;2023-05-23T10:46:57;24.00;22.80;13.00
69349;PMS5003;64554;43.452;4.934;2023-05-23T10:49:36;16.40;16.40;12.00
69349;PMS5003;64554;43.452;4.934;2023-05-23T10:52:04;17.00;16.00;12.00
69349;PMS5003;64554;43.452;4.934;2023-05-23T10:54:35;20.00;19.00;13.00
69349;PMS5003;64554;43.452;4.934;2023-05-23T10:57:03;18.00;16.50;12.00
69349;PMS5003;64554;43.452;4.934;2023-05-23T10:59:30;22.80;22.20;16.00
69349;PMS5003;64554;43.452;4.934;2023-05-23T11:01:56;23.25;21.25;15.25
69349;PMS5003;64554;43.452;4.934;2023-05-23T11:04:24;24.40;21.40;16.40
69349;PMS5003;64554;43.452;4.934;2023-05-23T11:06:51;17.80;17.80;13.80
69349;PMS5003;64554;43.452;4.934;2023-05-23T11:09:18;21.60;21.20;14.40
69349;PMS5003;64554;43.452;4.934;2023-05-23T11:14:15;23.80;22.00;16.00
69349;PMS5003;64554;43.452;4.934;2023-05-23T11:16:42;19.75;19.75;13.00
69349;PMS5003;64554;43.452;4.934;2023-05-23T11:21:45;20.40;20.40;16.00
69349;PMS5003;64554;43.452;4.934;2023-05-23T11:24:12;18.20;18.20;13.20
69349;PMS5003;64554;43.452;4.934;2023-05-23T11:26:38;20.25;19.75;14.50
69349;PMS5003;64554;43.452;4.934;2023-05-23T11:29:08;19.50;19.50;13.50
69349;PMS5003;64554;43.452;4.934;2023-05-23T11:31:37;19.00;19.00;14.75
69349;PMS5003;64554;43.452;4.934;2023-05-23T11:34:05;20.20;19.60;14.00
69349;PMS5003;64554;43.452;4.934;2023-05-23T11:36:33;20.00;18.00;12.75
69349;PMS5003;64554;43.452;4.934;2023-05-23T11:39:00;18.25;18.25;13.25
69349;PMS5003;64554;43.452;4.934;2023-05-23T11:41:29;19.60;19.60;13.40
69349;PMS5003;64554;43.452;4.934;2023-05-23T11:43:55;21.60;20.60;14.80
69349;PMS5003;64554;43.452;4.934;2023-05-23T11:46:22;25.00;23.75;14.75
69349;PMS5003;64554;43.452;4.934;2023-05-23T11:48:48;20.20;19.20;14.00
69349;PMS5003;64554;43.452;4.934;2023-05-23T11:51:15;20.00;20.00;13.40
69349;PMS5003;64554;43.452;4.934;2023-05-23T11:53:42;20.00;20.00;14.25
69349;PMS5003;64554;43.452;4.934;2023-05-23T11:56:09;18.75;18.75;14.75
69349;PMS5003;64554;43.452;4.934;2023-05-23T11:58:36;22.75;21.75;14.75
69349;PMS5003;64554;43.452;4.934;2023-05-23T12:01:04;20.20;19.20;14.20
69349;PMS5003;64554;43.452;4.934;2023-05-23T12:03:32;20.25;20.25;14.50
69349;PMS5003;64554;43.452;4.934;2023-05-23T12:05:59;22.20;22.20;14.00
69349;PMS5003;64554;43.452;4.934;2023-05-23T12:08:27;20.25;19.75;12.75
69349;PMS5003;64554;43.452;4.934;2023-05-23T12:10:57;24.60;23.60;16.00
69349;PMS5003;64554;43.452;4.934;2023-05-23T12:13:25;26.25;26.25;14.25
69349;PMS5003;64554;43.452;4.934;2023-05-23T12:15:55;27.50;26.50;16.00
69349;PMS5003;64554;43.452;4.934;2023-05-23T12:18:22;27.00;27.00;18.00
69349;PMS5003;64554;43.452;4.934;2023-05-23T12:20:49;26.00;26.00;17.00
69349;PMS5003;64554;43.452;4.934;2023-05-23T12:23:17;22.40;22.40;16.60
69349;PMS5003;64554;43.452;4.934;2023-05-23T12:25:43;25.00;25.00;18.00
69349;PMS5003;64554;43.452;4.934;2023-05-23T12:28:10;28.25;28.25;18.50
69349;PMS5003;64554;43.452;4.934;2023-05-23T12:30:42;26.75;24.75;16.75
69349;PMS5003;64554;43.452;4.934;2023-05-23T12:33:08;29.00;27.40;17.60
69349;PMS5003;64554;43.452;4.934;2023-05-23T12:35:35;30.00;29.00;17.00
69349;PMS5003;64554;43.452;4.934;2023-05-23T12:38:02;25.40;24.00;17.60
69349;PMS5003;64554;43.452;4.934;2023-05-23T12:40:32;27.00;25.60;18.00
69349;PMS5003;64554;43.452;4.934;2023-05-23T12:42:58;27.75;26.00;17.50
69349;PMS5003;64554;43.452;4.934;2023-05-23T12:45:31;27.20;26.20;16.20
69349;PMS5003;64554;43.452;4.934;2023-05-23T12:48:03;26.25;24.00;17.25
69349;PMS5003;64554;43.452;4.934;2023-05-23T12:50:30;25.40;25.00;15.20
69349;PMS5003;64554;43.452;4.934;2023-05-23T12:52:56;26.40;26.40;17.40
69349;PMS5003;64554;43.452;4.934;2023-05-23T12:55:23;28.40;28.40;19.00
69349;PMS5003;64554;43.452;4.934;2023-05-23T12:57:50;32.60;30.00;20.00
69349;PMS5003;64554;43.452;4.934;2023-05-23T13:00:16;29.20;27.20;18.00
69349;PMS5003;64554;43.452;4.934;2023-05-23T13:02:44;28.75;27.75;17.00
69349;PMS5003;64554;43.452;4.934;2023-05-23T13:05:11;26.25;25.75;18.00
69349;PMS5003;64554;43.452;4.934;2023-05-23T13:07:38;22.75;22.75;15.75
69349;PMS5003;64554;43.452;4.934;2023-05-23T13:10:05;26.00;24.00;16.00
69349;PMS5003;64554;43.452;4.934;2023-05-23T13:12:31;33.80;29.00;17.80
69349;PMS5003;64554;43.452;4.934;2023-05-23T13:14:59;28.00;25.20;18.00
69349;PMS5003;64554;43.452;4.934;2023-05-23T13:17:26;27.20;25.80;17.80
69349;PMS5003;64554;43.452;4.934;2023-05-23T13:19:53;26.80;26.80;19.20
69349;PMS5003;64554;43.452;4.934;2023-05-23T13:22:19;26.25;25.00;18.00
69349;PMS5003;64554;43.452;4.934;2023-05-23T13:24:46;25.00;25.00;15.50
69349;PMS5003;64554;43.452;4.934;2023-05-23T13:27:13;30.75;29.25;18.00
69349;PMS5003;64554;43.452;4.934;2023-05-23T13:29:39;20.00;20.00;13.60
69349;PMS5003;64554;43.452;4.934;2023-05-23T13:32:07;22.20;21.20;16.40
69349;PMS5003;64554;43.452;4.934;2023-05-23T13:34:33;24.00;23.00;17.40
69349;PMS5003;64554;43.452;4.934;2023-05-23T13:37:02;22.00;22.00;17.00
69349;PMS5003;64554;43.452;4.934;2023-05-23T13:39:30;22.75;22.75;15.00
69349;PMS5003;64554;43.452;4.934;2023-05-23T13:41:56;21.20;21.20;15.00
69349;PMS5003;64554;43.452;4.934;2023-05-23T13:44:23;20.00;20.00;14.00
69349;PMS5003;64554;43.452;4.934;2023-05-23T13:46:49;18.40;18.00;12.60
69349;PMS5003;64554;43.452;4.934;2023-05-23T13:49:16;25.50;24.25;14.00
69349;PMS5003;64554;43.452;4.934;2023-05-23T13:51:43;20.50;20.50;15.00
69349;PMS5003;64554;43.452;4.934;2023-05-23T13:54:09;24.00;24.00;14.00
69349;PMS5003;64554;43.452;4.934;2023-05-23T13:56:36;19.50;19.00;13.00
69349;PMS5003;64554;43.452;4.934;2023-05-23T13:59:04;24.00;24.00;16.00
69349;PMS5003;64554;43.452;4.934;2023-05-23T14:01:31;26.00;26.00;16.00
69349;PMS5003;64554;43.452;4.934;2023-05-23T14:03:58;22.25;21.25;15.00
69349;PMS5003;64554;43.452;4.934;2023-05-23T14:06:24;22.40;19.80;15.40
69349;PMS5003;64554;43.452;4.934;2023-05-23T14:08:51;24.75;22.75;15.75
69349;PMS5003;64554;43.452;4.934;2023-05-23T14:11:17;21.00;21.00;16.60
69349;PMS5003;64554;43.452;4.934;2023-05-23T14:13:44;25.60;25.00;17.20
69349;PMS5003;64554;43.452;4.934;2023-05-23T14:16:10;28.00;27.00;16.25
69349;PMS5003;64554;43.452;4.934;2023-05-23T14:18:37;27.40;26.40;14.40